createdAt,value
2022-09-23T00:01:33.102Z,5.80
2022-09-23T00:04:03.675Z,5.35
2022-09-23T00:06:31.612Z,5.78
2022-09-23T00:08:59.988Z,5.88
2022-09-23T00:11:29.022Z,5.22
2022-09-23T00:13:59.607Z,5.88
2022-09-23T00:16:34.665Z,5.53
2022-09-23T00:19:04.457Z,5.13
2022-09-23T00:21:32.466Z,5.40
2022-09-23T00:24:01.186Z,5.85
2022-09-23T00:26:32.682Z,5.93
2022-09-23T00:29:01.110Z,5.47
2022-09-23T00:31:30.289Z,6.22
2022-09-23T00:34:01.014Z,5.38
2022-09-23T00:36:30.022Z,5.43
2022-09-23T00:38:58.751Z,6.10
2022-09-23T00:41:29.209Z,5.45
2022-09-23T00:44:01.186Z,5.75
2022-09-23T00:46:35.471Z,5.82
2022-09-23T00:49:26.122Z,5.70
2022-09-23T00:52:09.648Z,6.03
2022-09-23T00:54:41.225Z,6.30
2022-09-23T00:57:11.315Z,6.50
2022-09-23T00:59:39.841Z,6.85
2022-09-23T01:02:10.072Z,6.57
2022-09-23T01:04:38.519Z,6.23
2022-09-23T01:07:06.948Z,6.53
2022-09-23T01:09:35.970Z,6.97
2022-09-23T01:12:10.197Z,6.93
2022-09-23T01:15:07.034Z,6.40
2022-09-23T01:18:21.230Z,6.72
2022-09-23T01:20:57.096Z,6.88
2022-09-23T01:23:46.860Z,6.50
2022-09-23T01:27:05.695Z,6.78
2022-09-23T01:30:02.048Z,6.68
2022-09-23T01:32:31.314Z,6.78
2022-09-23T01:35:13.325Z,7.20
2022-09-23T01:37:56.067Z,6.65
2022-09-23T01:40:37.021Z,7.28
2022-09-23T01:43:28.342Z,6.95
2022-09-23T01:45:59.918Z,6.97
2022-09-23T01:48:46.661Z,6.90
2022-09-23T01:51:39.361Z,7.00
2022-09-23T01:54:34.493Z,7.03
2022-09-23T01:57:27.742Z,6.70
2022-09-23T02:00:05.219Z,7.47
2022-09-23T02:02:49.746Z,7.40
2022-09-23T02:05:30.874Z,6.72
2022-09-23T02:08:11.358Z,7.15
2022-09-23T02:10:56.216Z,7.07
2022-09-23T02:13:32.868Z,7.20
2022-09-23T02:16:08.649Z,7.20
2022-09-23T02:18:58.113Z,7.05
2022-09-23T02:21:34.586Z,6.18
2022-09-23T02:24:10.264Z,7.03
2022-09-23T02:26:41.585Z,7.15
2022-09-23T02:29:21.312Z,6.90
2022-09-23T02:32:04.374Z,6.85
2022-09-23T02:34:47.039Z,6.80
2022-09-23T02:37:43.617Z,6.60
2022-09-23T02:40:47.592Z,6.80
2022-09-23T02:43:46.857Z,6.80
2022-09-23T02:46:15.873Z,6.50
2022-09-23T02:48:50.464Z,5.97
2022-09-23T02:51:19.281Z,6.88
2022-09-23T02:53:47.816Z,7.00
2022-09-23T02:56:21.164Z,6.28
2022-09-23T02:58:51.931Z,6.85
2022-09-23T03:01:26.257Z,6.10
2022-09-23T03:04:41.051Z,5.97
2022-09-23T03:07:19.030Z,6.38
2022-09-23T03:10:14.072Z,5.82
2022-09-23T03:13:18.272Z,5.68
2022-09-23T03:16:00.220Z,6.40
2022-09-23T03:18:50.364Z,6.65
2022-09-23T03:21:45.258Z,6.40
2022-09-23T03:24:15.416Z,6.30
2022-09-23T03:26:47.462Z,6.33
2022-09-23T03:29:19.344Z,6.07
2022-09-23T03:31:48.482Z,6.82
2022-09-23T03:34:22.749Z,6.40
2022-09-23T03:37:30.284Z,6.55
2022-09-23T03:40:28.570Z,7.20
2022-09-23T03:42:58.550Z,7.65
2022-09-23T03:45:32.296Z,7.20
2022-09-23T03:48:01.372Z,7.35
2022-09-23T03:50:30.040Z,7.45
2022-09-23T03:52:59.443Z,7.63
2022-09-23T03:55:28.657Z,7.32
2022-09-23T03:57:56.919Z,8.00
2022-09-23T04:00:24.803Z,6.57
2022-09-23T04:02:54.137Z,7.25
2022-09-23T04:05:22.265Z,7.55
2022-09-23T04:07:51.159Z,6.90
2022-09-23T04:10:19.877Z,7.35
2022-09-23T04:12:47.960Z,7.40
2022-09-23T04:15:16.693Z,6.88
2022-09-23T04:17:45.287Z,7.18
2022-09-23T04:20:13.973Z,7.80
2022-09-23T04:22:42.711Z,7.32
2022-09-23T04:27:42.250Z,6.65
2022-09-23T04:30:11.217Z,7.38
2022-09-23T04:32:39.557Z,7.97
2022-09-23T04:35:08.492Z,7.47
2022-09-23T04:37:36.727Z,6.95
2022-09-23T04:40:06.095Z,7.03
2022-09-23T04:42:34.966Z,6.97
2022-09-23T04:45:03.190Z,7.10
2022-09-23T04:47:32.959Z,7.82
2022-09-23T04:50:00.979Z,7.35
2022-09-23T04:52:31.368Z,5.85
2022-09-23T04:54:59.350Z,6.50
2022-09-23T04:57:28.238Z,7.20
2022-09-23T04:59:57.437Z,7.03
2022-09-23T05:02:26.705Z,6.88
2022-09-23T05:04:55.461Z,7.65
2022-09-23T05:07:23.584Z,7.35
2022-09-23T05:09:51.394Z,7.70
2022-09-23T05:12:19.191Z,7.35
2022-09-23T05:14:47.297Z,7.72
2022-09-23T05:17:15.586Z,7.95
2022-09-23T05:19:44.053Z,7.85
2022-09-23T05:22:12.097Z,7.45
2022-09-23T05:24:40.539Z,7.43
2022-09-23T05:27:08.960Z,8.02
2022-09-23T05:29:39.252Z,7.82
2022-09-23T05:32:08.103Z,7.95
2022-09-23T05:34:36.673Z,8.15
2022-09-23T05:37:05.484Z,7.57
2022-09-23T05:39:33.976Z,8.10
2022-09-23T05:42:01.992Z,8.02
2022-09-23T05:44:30.722Z,8.60
2022-09-23T05:46:59.639Z,8.80
2022-09-23T05:49:48.373Z,8.35
2022-09-23T05:52:17.251Z,7.95
2022-09-23T05:54:45.604Z,8.15
2022-09-23T05:57:13.457Z,8.20
2022-09-23T05:59:47.503Z,7.90
2022-09-23T06:02:16.240Z,8.13
2022-09-23T06:04:46.181Z,8.43
2022-09-23T06:07:14.721Z,8.02
2022-09-23T06:09:46.340Z,8.77
2022-09-23T06:12:15.304Z,8.57
2022-09-23T06:14:43.635Z,8.52
2022-09-23T06:17:14.004Z,8.25
2022-09-23T06:19:42.343Z,7.57
2022-09-23T06:22:16.991Z,8.13
2022-09-23T06:24:45.631Z,7.57
2022-09-23T06:27:13.491Z,6.82
2022-09-23T06:29:44.331Z,7.85
2022-09-23T06:32:12.368Z,6.97
2022-09-23T06:34:51.179Z,7.75
2022-09-23T06:37:20.789Z,7.65
2022-09-23T06:39:49.245Z,7.53
2022-09-23T06:42:17.475Z,7.18
2022-09-23T06:44:45.511Z,7.50
2022-09-23T06:47:14.450Z,7.63
2022-09-23T06:49:42.406Z,7.60
2022-09-23T06:52:11.505Z,8.48
2022-09-23T06:54:39.955Z,8.68
2022-09-23T06:57:10.186Z,7.60
2022-09-23T06:59:38.415Z,9.10
2022-09-23T07:02:07.070Z,8.60
2022-09-23T07:04:35.338Z,8.48
2022-09-23T07:07:03.934Z,8.95
2022-09-23T07:09:32.231Z,8.95
2022-09-23T07:12:00.624Z,8.93
2022-09-23T07:14:29.075Z,9.27
2022-09-23T07:17:00.050Z,9.15
2022-09-23T07:19:28.407Z,8.73
2022-09-23T07:21:57.141Z,9.30
2022-09-23T07:24:25.810Z,9.63
2022-09-23T07:26:55.150Z,9.45
2022-09-23T07:29:23.269Z,10.40
2022-09-23T07:31:52.208Z,9.30
2022-09-23T07:34:20.660Z,9.35
2022-09-23T07:36:51.374Z,9.00
2022-09-23T07:39:19.679Z,9.15
2022-09-23T07:41:51.907Z,9.63
2022-09-23T07:44:21.939Z,9.18
2022-09-23T07:46:50.376Z,9.37
2022-09-23T07:49:18.280Z,9.23
2022-09-23T07:51:47.002Z,10.05
2022-09-23T07:54:17.328Z,9.32
2022-09-23T07:56:46.315Z,9.87
2022-09-23T07:59:18.431Z,10.02
2022-09-23T08:01:49.549Z,9.73
2022-09-23T08:04:29.727Z,9.93
2022-09-23T08:07:04.740Z,9.30
2022-09-23T08:09:39.465Z,9.65
2022-09-23T08:12:16.382Z,10.25
2022-09-23T08:14:45.028Z,9.82
2022-09-23T08:17:14.339Z,10.35
2022-09-23T08:19:42.616Z,10.55
2022-09-23T08:22:11.703Z,9.38
2022-09-23T08:24:40.004Z,9.90
2022-09-23T08:27:08.136Z,10.05
2022-09-23T08:29:35.929Z,10.73
2022-09-23T08:32:04.428Z,10.63
2022-09-23T08:34:32.716Z,9.00
2022-09-23T08:37:00.714Z,9.65
2022-09-23T08:39:29.061Z,9.68
2022-09-23T08:42:16.324Z,8.65
2022-09-23T08:44:49.625Z,9.57
2022-09-23T08:47:24.686Z,9.48
2022-09-23T08:50:02.163Z,10.27
2022-09-23T08:53:10.935Z,9.50
2022-09-23T08:55:46.318Z,9.60
2022-09-23T08:58:27.013Z,10.32
2022-09-23T09:01:23.883Z,10.50
2022-09-23T09:04:18.889Z,10.25
2022-09-23T09:07:34.637Z,9.55
2022-09-23T09:10:21.217Z,9.68
2022-09-23T09:13:00.361Z,10.13
2022-09-23T09:15:29.063Z,10.07
2022-09-23T09:18:15.197Z,10.30
2022-09-23T09:21:14.079Z,10.20
2022-09-23T09:23:52.848Z,10.90
2022-09-23T09:26:34.933Z,10.10
2022-09-23T09:29:33.745Z,10.55
2022-09-23T09:31:59.828Z,10.00
2022-09-23T09:35:05.799Z,10.13
2022-09-23T09:37:47.038Z,12.30
2022-09-23T09:42:50.479Z,12.73
2022-09-23T09:45:42.766Z,13.80
2022-09-23T09:48:37.961Z,13.60
2022-09-23T09:51:23.693Z,14.93
2022-09-23T09:53:52.957Z,14.43
2022-09-23T09:56:27.673Z,15.07
2022-09-23T09:59:08.361Z,16.33
2022-09-23T10:01:36.537Z,15.45
2022-09-23T10:04:18.782Z,15.27
2022-09-23T10:07:11.946Z,15.32
2022-09-23T10:09:48.089Z,16.15
2022-09-23T10:12:22.183Z,16.70
2022-09-23T10:14:55.421Z,17.10
2022-09-23T10:17:34.510Z,17.33
2022-09-23T10:20:08.404Z,16.77
2022-09-23T10:22:39.885Z,17.35
2022-09-23T10:25:16.471Z,17.90
2022-09-23T10:27:45.749Z,16.20
2022-09-23T10:30:24.430Z,16.42
2022-09-23T10:32:55.014Z,17.35
2022-09-23T10:35:25.351Z,17.60
2022-09-23T10:37:55.558Z,17.65
2022-09-23T10:40:56.237Z,16.73
2022-09-23T10:43:51.893Z,17.05
2022-09-23T10:46:39.118Z,18.42
2022-09-23T10:49:48.396Z,18.15
2022-09-23T10:52:27.860Z,17.23
2022-09-23T10:55:20.292Z,16.63
2022-09-23T10:58:08.281Z,17.65
2022-09-23T11:01:15.487Z,16.10
2022-09-23T11:04:22.694Z,16.33
2022-09-23T11:07:11.030Z,16.38
2022-09-23T11:10:23.362Z,16.13
2022-09-23T11:13:18.880Z,16.25
2022-09-23T11:16:21.688Z,14.77
2022-09-23T11:18:56.375Z,14.55
2022-09-23T11:21:37.202Z,15.70
2022-09-23T11:24:17.929Z,13.05
2022-09-23T11:27:17.482Z,11.55
2022-09-23T11:30:07.613Z,10.60
2022-09-23T11:33:14.125Z,10.98
2022-09-23T11:35:53.295Z,11.13
2022-09-23T11:38:29.488Z,11.55
2022-09-23T11:41:09.103Z,12.00
2022-09-23T11:43:40.461Z,10.10
2022-09-23T11:46:33.198Z,11.48
2022-09-23T11:49:35.130Z,10.23
2022-09-23T11:52:19.726Z,9.10
2022-09-23T11:55:25.250Z,9.57
2022-09-23T11:58:08.221Z,8.70
2022-09-23T12:01:01.010Z,8.80
2022-09-23T12:03:43.921Z,7.85
2022-09-23T12:06:19.092Z,7.68
2022-09-23T12:08:51.055Z,7.78
2022-09-23T12:11:32.455Z,8.88
2022-09-23T12:14:16.178Z,7.57
2022-09-23T12:17:07.331Z,8.70
2022-09-23T12:20:16.174Z,7.45
2022-09-23T12:22:45.940Z,8.05
2022-09-23T12:25:32.405Z,8.00
2022-09-23T12:28:17.239Z,7.43
2022-09-23T12:30:47.076Z,7.45
2022-09-23T12:33:31.242Z,7.07
2022-09-23T12:36:12.470Z,7.53
2022-09-23T12:38:59.275Z,7.22
2022-09-23T12:41:37.727Z,6.95
2022-09-23T12:44:12.489Z,6.88
2022-09-23T12:46:47.329Z,6.93
2022-09-23T12:49:25.144Z,6.70
2022-09-23T12:52:13.705Z,6.82
2022-09-23T12:54:45.019Z,6.68
2022-09-23T12:57:13.999Z,7.55
2022-09-23T13:00:09.560Z,6.22
2022-09-23T13:03:20.026Z,7.47
2022-09-23T13:06:09.966Z,6.35
2022-09-23T13:08:41.896Z,7.07
2022-09-23T13:11:29.415Z,6.53
2022-09-23T13:14:17.740Z,6.43
2022-09-23T13:16:47.497Z,6.13
2022-09-23T13:19:27.927Z,6.65
2022-09-23T13:22:07.824Z,6.07
2022-09-23T13:24:45.992Z,6.70
2022-09-23T13:27:26.677Z,6.63
2022-09-23T13:30:26.379Z,6.13
2022-09-23T13:33:27.669Z,5.03
2022-09-23T13:36:04.961Z,5.10
2022-09-23T13:38:37.783Z,5.18
2022-09-23T13:41:22.125Z,4.20
2022-09-23T13:43:58.828Z,4.28
2022-09-23T13:46:30.684Z,5.50
2022-09-23T13:51:33.934Z,3.33
2022-09-23T13:54:04.202Z,3.38
2022-09-23T13:56:35.402Z,3.15
2022-09-23T13:59:20.907Z,3.03
2022-09-23T14:01:56.311Z,3.60
2022-09-23T14:04:27.587Z,3.78
2022-09-23T14:06:56.806Z,4.68
2022-09-23T14:09:29.230Z,4.35
2022-09-23T14:12:00.173Z,4.50
2022-09-23T14:14:30.747Z,4.47
2022-09-23T14:16:59.615Z,4.15
2022-09-23T14:19:32.469Z,4.75
2022-09-23T14:22:00.763Z,4.90
2022-09-23T14:24:38.663Z,5.07
2022-09-23T14:27:07.230Z,4.95
2022-09-23T14:29:39.115Z,5.40
2022-09-23T14:32:17.300Z,5.68
2022-09-23T14:34:50.678Z,5.53
2022-09-23T14:37:37.448Z,5.35
2022-09-23T14:40:31.264Z,5.25
2022-09-23T14:43:28.552Z,6.10
2022-09-23T14:45:59.401Z,7.30
2022-09-23T14:50:58.562Z,6.22
2022-09-23T14:53:40.686Z,6.15
2022-09-23T14:56:17.271Z,7.63
2022-09-23T14:58:53.273Z,7.32
2022-09-23T15:01:32.598Z,6.97
2022-09-23T15:04:10.331Z,6.95
2022-09-23T15:06:40.857Z,7.10
2022-09-23T15:09:17.700Z,7.45
2022-09-23T15:11:46.590Z,6.95
2022-09-23T15:14:36.789Z,7.28
2022-09-23T15:17:18.047Z,8.10
2022-09-23T15:19:52.638Z,7.05
2022-09-23T15:22:21.323Z,7.32
2022-09-23T15:25:03.329Z,7.32
2022-09-23T15:27:34.213Z,7.72
2022-09-23T15:30:22.402Z,7.67
2022-09-23T15:32:51.585Z,7.30
2022-09-23T15:35:22.735Z,6.70
2022-09-23T15:37:51.693Z,7.10
2022-09-23T15:40:30.483Z,7.50
2022-09-23T15:43:01.290Z,7.00
2022-09-23T15:45:36.036Z,8.00
2022-09-23T15:48:12.916Z,7.55
2022-09-23T15:50:42.524Z,8.02
2022-09-23T15:53:20.475Z,7.95
2022-09-23T15:55:53.106Z,8.05
2022-09-23T15:58:23.591Z,7.65
2022-09-23T16:00:56.664Z,8.05
2022-09-23T16:03:28.637Z,8.10
2022-09-23T16:06:04.302Z,8.38
2022-09-23T16:08:33.227Z,8.02
2022-09-23T16:11:01.418Z,7.63
2022-09-23T16:13:30.673Z,7.60
2022-09-23T16:16:01.947Z,7.25
2022-09-23T16:18:31.014Z,7.78
2022-09-23T16:21:00.017Z,7.50
2022-09-23T16:23:37.096Z,7.85
2022-09-23T16:26:10.516Z,6.70
2022-09-23T16:28:58.263Z,6.82
2022-09-23T16:31:31.433Z,7.18
2022-09-23T16:34:03.097Z,7.45
2022-09-23T16:36:41.263Z,7.32
2022-09-23T16:39:12.664Z,6.72
2022-09-23T16:44:12.639Z,6.70
2022-09-23T16:46:43.023Z,7.30
2022-09-23T16:49:14.105Z,8.15
2022-09-23T16:51:42.321Z,7.93
2022-09-23T16:54:12.675Z,7.68
2022-09-23T16:56:45.361Z,7.97
2022-09-23T16:59:15.394Z,7.30
2022-09-23T17:02:03.437Z,7.72
2022-09-23T17:04:31.693Z,8.52
2022-09-23T17:06:59.700Z,7.57
2022-09-23T17:09:28.730Z,6.95
2022-09-23T17:12:20.155Z,6.95
2022-09-23T17:14:48.538Z,7.15
2022-09-23T17:17:16.751Z,6.50
2022-09-23T17:19:45.156Z,6.40
2022-09-23T17:22:14.111Z,5.78
2022-09-23T17:24:42.838Z,5.93
2022-09-23T17:27:10.736Z,6.95
2022-09-23T17:29:38.550Z,6.75
2022-09-23T17:32:08.554Z,6.70
2022-09-23T17:34:36.521Z,6.50
2022-09-23T17:37:04.702Z,6.20
2022-09-23T17:39:32.777Z,6.72
2022-09-23T17:42:01.785Z,6.10
2022-09-23T17:44:30.672Z,6.68
2022-09-23T17:46:58.869Z,6.55
2022-09-23T17:49:26.806Z,5.47
2022-09-23T17:51:56.908Z,6.18
2022-09-23T17:54:24.985Z,5.60
2022-09-23T17:56:56.500Z,5.72
2022-09-23T17:59:24.540Z,5.65
2022-09-23T18:01:54.120Z,5.57
2022-09-23T18:04:22.595Z,5.60
2022-09-23T18:06:53.541Z,4.25
2022-09-23T18:09:22.186Z,4.80
2022-09-23T18:11:50.156Z,5.00
2022-09-23T18:14:23.665Z,5.00
2022-09-23T18:16:53.769Z,5.45
2022-09-23T18:19:24.945Z,4.60
2022-09-23T18:21:58.743Z,4.80
2022-09-23T18:24:34.347Z,5.13
2022-09-23T18:27:06.457Z,6.00
2022-09-23T18:29:35.331Z,5.78
2022-09-23T18:32:04.973Z,4.78
2022-09-23T18:34:34.264Z,4.55
2022-09-23T18:37:06.357Z,4.47
2022-09-23T18:39:44.966Z,4.45
2022-09-23T18:42:13.714Z,4.55
2022-09-23T18:44:41.700Z,4.72
2022-09-23T18:47:29.801Z,4.32
2022-09-23T18:50:16.844Z,4.60
2022-09-23T18:52:45.258Z,4.38
2022-09-23T18:55:13.767Z,4.85
2022-09-23T18:57:41.709Z,4.25
2022-09-23T19:00:11.242Z,4.57
2022-09-23T19:02:39.277Z,5.10
2022-09-23T19:05:09.599Z,4.45
2022-09-23T19:07:39.932Z,5.15
2022-09-23T19:10:08.782Z,4.82
2022-09-23T19:12:37.122Z,4.93
2022-09-23T19:15:06.206Z,3.92
2022-09-23T19:17:34.184Z,3.60
2022-09-23T19:20:02.605Z,4.00
2022-09-23T19:22:32.771Z,4.38
2022-09-23T19:25:01.201Z,4.55
2022-09-23T19:27:29.365Z,5.18
2022-09-23T19:29:57.846Z,5.15
2022-09-23T19:32:26.846Z,4.50
2022-09-23T19:34:58.690Z,4.32
2022-09-23T19:37:27.116Z,4.85
2022-09-23T19:39:55.638Z,4.35
2022-09-23T19:42:27.703Z,4.25
2022-09-23T19:44:55.534Z,4.60
2022-09-23T19:47:24.631Z,3.42
2022-09-23T19:49:52.918Z,4.10
2022-09-23T19:52:20.838Z,3.78
2022-09-23T19:54:50.583Z,4.55
2022-09-23T19:57:20.895Z,4.00
2022-09-23T19:59:50.946Z,3.75
2022-09-23T20:02:19.280Z,4.20
2022-09-23T20:04:49.052Z,3.55
2022-09-23T20:07:17.907Z,3.78
2022-09-23T20:09:46.010Z,3.92
2022-09-23T20:12:14.282Z,3.45
2022-09-23T20:14:43.758Z,3.50
2022-09-23T20:17:13.772Z,4.05
2022-09-23T20:19:42.458Z,3.90
2022-09-23T20:22:32.222Z,3.65
2022-09-23T20:25:02.481Z,3.85
2022-09-23T20:27:31.610Z,3.83
2022-09-23T20:30:01.006Z,4.22
2022-09-23T20:32:29.801Z,4.82
2022-09-23T20:34:57.651Z,4.30
2022-09-23T20:37:25.997Z,4.40
2022-09-23T20:39:54.592Z,4.97
2022-09-23T20:42:24.423Z,4.47
2022-09-23T20:44:52.611Z,4.70
2022-09-23T20:47:24.124Z,4.60
2022-09-23T20:49:53.841Z,4.80
2022-09-23T20:52:22.337Z,4.88
2022-09-23T20:54:51.693Z,4.97
2022-09-23T20:57:20.397Z,5.53
2022-09-23T20:59:49.613Z,4.57
2022-09-23T21:02:19.070Z,3.92
2022-09-23T21:04:47.477Z,4.05
2022-09-23T21:07:16.152Z,4.05
2022-09-23T21:09:44.560Z,3.83
2022-09-23T21:12:12.795Z,3.80
2022-09-23T21:14:41.047Z,4.30
2022-09-23T21:17:10.172Z,3.92
2022-09-23T21:19:41.625Z,3.20
2022-09-23T21:22:12.423Z,4.45
2022-09-23T21:25:16.085Z,3.60
2022-09-23T21:27:30.634Z,3.70
2022-09-23T21:29:59.114Z,3.78
2022-09-23T21:32:26.923Z,3.67
2022-09-23T21:34:55.487Z,3.55
2022-09-23T21:37:24.130Z,3.67
2022-09-23T21:40:10.402Z,2.90
2022-09-23T21:42:38.512Z,3.40
2022-09-23T21:45:07.747Z,3.20
2022-09-23T21:47:36.037Z,3.10
2022-09-23T21:50:04.566Z,3.03
2022-09-23T21:52:32.769Z,3.25
2022-09-23T21:55:00.638Z,3.00
2022-09-23T21:57:30.656Z,3.10
2022-09-23T21:59:58.608Z,3.00
2022-09-23T22:02:27.645Z,3.00
2022-09-23T22:04:56.420Z,3.08
2022-09-23T22:07:24.989Z,3.13
2022-09-23T22:09:52.865Z,3.53
2022-09-23T22:12:21.014Z,3.22
2022-09-23T22:14:51.053Z,3.30
2022-09-23T22:17:19.615Z,2.95
2022-09-23T22:19:47.707Z,2.85
2022-09-23T22:22:18.516Z,3.70
2022-09-23T22:24:48.646Z,3.33
2022-09-23T22:27:19.335Z,3.10
2022-09-23T22:30:06.817Z,3.40
2022-09-23T22:32:41.986Z,3.55
2022-09-23T22:35:12.502Z,3.20
2022-09-23T22:37:43.706Z,3.33
2022-09-23T22:40:17.712Z,3.15
2022-09-23T22:45:15.220Z,2.97
2022-09-23T22:47:45.553Z,2.95
2022-09-23T22:52:45.253Z,2.97
2022-09-23T22:55:14.088Z,3.42
2022-09-23T22:57:45.406Z,3.55
2022-09-23T23:00:14.422Z,3.22
2022-09-23T23:02:42.867Z,3.30
2022-09-23T23:05:12.587Z,3.13
2022-09-23T23:07:41.897Z,3.10
2022-09-23T23:10:10.847Z,3.30
2022-09-23T23:12:41.932Z,3.10
2022-09-23T23:15:12.465Z,3.78
2022-09-23T23:17:43.379Z,3.33
2022-09-23T23:20:11.408Z,2.93
2022-09-23T23:22:47.796Z,3.25
2022-09-23T23:25:16.438Z,3.15
2022-09-23T23:27:46.025Z,4.00
2022-09-23T23:30:14.209Z,3.47
2022-09-23T23:32:45.583Z,4.13
2022-09-23T23:35:14.764Z,4.22
2022-09-23T23:37:42.966Z,3.63
2022-09-23T23:40:15.236Z,3.60
2022-09-23T23:42:43.977Z,3.42
2022-09-23T23:45:12.427Z,3.20
2022-09-23T23:47:40.327Z,3.65
2022-09-23T23:50:09.854Z,4.85
2022-09-23T23:52:38.706Z,3.45
2022-09-23T23:55:06.733Z,3.55
2022-09-23T23:57:34.933Z,3.60
